SiteLock Weather in Ekeren and Port of Antwerp Multilingual Website with PHP & AJAX - Nearby METAR Reports

Nearby METAR Reports

 

KSJC - San Jose, California, USA
Distance from station: NO 14km
Ververst: 16/09/2019 18:14
Regen, Mist, Zwaar bewolkt
Regen, Mist, Zwaar bewolkt
 Wind van NNW
Wind: NNW 11 km/h
Temperatuur: 17°C
Dauwpunt: 16°C
Vochtigheid: 94%
Barometer: 1013.9 hPa
Overzicht: Regen, Mist
Clouds: Zwaar bewolkt
Visibility: 2 km
Cloud details: Few Clouds 30 m
Meestal bewolkt 122 m
Zwaar bewolkt 366 m
2019/09/16 16:14 KSJC 161614Z 33006KT 1 1/4SM R30L/6000VP6000FT RA BR FEW001 BKN004 OVC012 17/16 A2994 RMK AO2 P0001 T01670161
KNUQ - Moffett Nas/Mtn, California, USA
Distance from station: N 14km
Ververst: 16/09/2019 17:56

 
Barometer: 1014.2 hPa
2019/09/16 15:56 KNUQ 161556Z A2995 RMK AO2 SLP146 PWINO $
 
KPAO - Palo Alto, California, USA
Distance from station: NNW 23km
Ververst: 16/09/2019 17:47
Zwaar bewolkt
Zwaar bewolkt
 Wind van WNW
Wind: WNW 13 km/h
Temperatuur: 17°C
Dauwpunt: 16°C
Vochtigheid: 94%
Barometer: 1013.9 hPa
Clouds: Zwaar bewolkt
Visibility: 6 km
Cloud details: Meestal bewolkt 427 m
Zwaar bewolkt 914 m
2019/09/16 15:47 KPAO 161547Z 30007KT 4SM BKN014 OVC030 17/16 A2994 BR -RA
KRHV - San Jose/Reid, California, USA
Distance from station: ONO 19km
Ververst: 16/09/2019 17:50
Lichte regen, Mist, Zwaar bewolkt
Lichte regen, Mist, Zwaar bewolkt
 Wind van NNW
Wind: NNW 20 km/h
Temperatuur: 16°C
Dauwpunt: 16°C
Vochtigheid: 100%
Barometer: 1013.9 hPa
Overzicht: Lichte regen, Mist
Clouds: Zwaar bewolkt
Visibility: 2 km
Cloud details: Meestal bewolkt 183 m
Zwaar bewolkt 305 m
2019/09/16 15:50 KRHV 161550Z 33011KT 1SM -RA BR BKN006 OVC010 16/16 A2994
 
KOAK - Oakland, California, USA
Distance from station: NNW 50km
Ververst: 16/09/2019 18:18
Meestal bewolkt
Meestal bewolkt
 Wind van W
Wind: W 19 km/h
Temperatuur: 18°C
Dauwpunt: 15°C
Vochtigheid: 83%
Barometer: 1013.9 hPa
Clouds: Meestal bewolkt
Visibility: 16 km
Cloud details: Meestal bewolkt 366 m
Meestal bewolkt 1433 m
Meestal bewolkt 2591 m
2019/09/16 16:18 KOAK 161618Z 27010KT 10SM BKN012 BKN047 BKN085 18/15 A2994 RMK AO2 RAE18 P0000 T01780150
KSQL - San Carlos Airpo, California, USA
Distance from station: NW 34km
Ververst: 16/09/2019 17:47
Mist, Meestal bewolkt
Mist, Meestal bewolkt
 Wind van WZW
Wind: WZW 7 km/h
Temperatuur: 17°C
Dauwpunt: 15°C
Vochtigheid: 88%
Barometer: 1013.9 hPa
Overzicht: Mist
Clouds: Meestal bewolkt
Visibility: 10 km
Cloud details: Gedeeltelijk bewolkt 427 m
Meestal bewolkt 1219 m
2019/09/16 15:47 KSQL 161547Z 24004KT 6SM BR SCT014 BKN040 17/15 A2994
 
KSFO - San Francisco, California, USA
Distance from station: NW 49km
Ververst: 16/09/2019 17:56
Zwaar bewolkt
Zwaar bewolkt
 Wind van WZW
Wind: WZW 26 km/h
Temperatuur: 17°C
Dauwpunt: 14°C
Vochtigheid: 83%
Barometer: 1013.5 hPa
Clouds: Zwaar bewolkt
Visibility: 16 km
Cloud details: Few Clouds 1097 m
Zwaar bewolkt 2591 m
2019/09/16 15:56 KSFO 161556Z 25014KT 10SM FEW036 OVC085 17/14 A2993 RMK AO2 RAB40E50 SLP135 P0000 T01670144
KE16 - San Martin, California, USA
Distance from station: OZO 43km
Ververst: 05/08/2019 19:10
NOT Current
Helder
Helder
 Wind van OZO
Wind: OZO 19 km/h
Temperatuur: 19°C
Dauwpunt: 14°C
Vochtigheid: 73%
Barometer: 1016.9 hPa
Clouds: Helder
Visibility: 16 km
2019/08/05 17:10 KE16 051710Z AUTO 12010KT 10SM CLR 19/14 A3003 RMK AO2
 
KWVI - Watsonville, California, USA
Distance from station: ZZO 44km
Ververst: 13/09/2019 23:53
NOT Current
Helder
Helder
 Wind van W
Wind: W 17 km/h
Temperatuur: 37°C
Dauwpunt: 4°C
Vochtigheid: 13%
Barometer: 1013.5 hPa
Clouds: Helder
Visibility: 16 km
2019/09/13 21:53 KWVI 132153Z AUTO 27009KT 10SM CLR 37/04 A2993 RMK AO2 SLP133 T03670039
KHAF - Half Moon Bay, California, USA
Distance from station: WNW 50km
Ververst: 16/09/2019 18:35
Zwaar bewolkt
Zwaar bewolkt
 Wind van calm
Wind: Kalm
Temperatuur: 15°C
Dauwpunt: 15°C
Vochtigheid: 100%
Barometer: 1014.6 hPa
Clouds: Zwaar bewolkt
Visibility: 16 km
Cloud details: Gedeeltelijk bewolkt 183 m
Zwaar bewolkt 366 m
2019/09/16 16:35 KHAF 161635Z AUTO 00000KT 10SM SCT006 OVC012 15/15 A2996 RMK AO2
 
KHWD - Hayward, California, USA
Distance from station: N 44km
Ververst: 16/09/2019 18:09
Lichte regen, Zwaar bewolkt
Lichte regen, Zwaar bewolkt
 Wind van W
Wind: W 7 km/h
Temperatuur: 17°C
Dauwpunt: 15°C
Vochtigheid: 88%
Barometer: 1013.9 hPa
Overzicht: Lichte regen
Clouds: Zwaar bewolkt
Visibility: 13 km
Cloud details: Gedeeltelijk bewolkt 335 m
Meestal bewolkt 549 m
Zwaar bewolkt 1981 m
2019/09/16 16:09 KHWD 161609Z 26004KT 8SM -RA SCT011 BKN018 OVC065 17/15 A2994 RMK AO2 T01670150 PNO
KLVK - Livermore, California, USA
Distance from station: NNO 51km
Ververst: 16/09/2019 17:53
Lichte regen, Mist, Zwaar bewolkt
Lichte regen, Mist, Zwaar bewolkt
 Wind van W
Wind: W 17 km/h
Temperatuur: 16°C
Dauwpunt: 15°C
Vochtigheid: 94%
Barometer: 1013.5 hPa
Overzicht: Lichte regen, Mist
Clouds: Zwaar bewolkt
Visibility: 4 km
Cloud details: Few Clouds 213 m
Gedeeltelijk bewolkt 975 m
Zwaar bewolkt 1219 m
2019/09/16 15:53 KLVK 161553Z 28009KT 2 1/2SM -RA BR FEW007 SCT032 OVC040 16/15 A2993 RMK AO2 RAB03E16B19 SLP131 P0005 T01560150